createdAt,value
2023-03-05T00:01:25.740Z,96886.47
2023-03-05T00:03:58.098Z,96874.22
2023-03-05T00:06:31.957Z,96884.13
2023-03-05T00:09:04.695Z,96883.88
2023-03-05T00:11:36.680Z,96884.13
2023-03-05T00:14:11.306Z,96891.38
2023-03-05T00:16:43.184Z,96888.88
2023-03-05T00:19:14.864Z,96890.81
2023-03-05T00:21:46.469Z,96886.50
2023-03-05T00:24:21.217Z,96879.78
2023-03-05T00:26:53.208Z,96887.81
2023-03-05T00:29:24.766Z,96882.66
2023-03-05T00:31:56.399Z,96878.63
2023-03-05T00:34:29.567Z,96886.03
2023-03-05T00:37:01.062Z,96876.47
2023-03-05T00:39:32.640Z,96874.00
2023-03-05T00:42:04.456Z,96875.91
2023-03-05T00:44:36.558Z,96871.13
2023-03-05T00:47:08.104Z,96867.25
2023-03-05T00:49:39.679Z,96861.06
2023-03-05T00:52:11.254Z,96872.31
2023-03-05T00:54:42.835Z,96859.06
2023-03-05T00:57:14.432Z,96856.38
2023-03-05T00:59:45.962Z,96855.72
2023-03-05T01:02:17.562Z,96853.97
2023-03-05T01:04:49.553Z,96854.59
2023-03-05T01:07:21.255Z,96849.84
2023-03-05T01:09:55.570Z,96853.69
2023-03-05T01:12:27.076Z,96851.25
2023-03-05T01:14:58.661Z,96846.47
2023-03-05T01:17:30.225Z,96847.88
2023-03-05T01:20:02.132Z,96833.38
2023-03-05T01:22:33.739Z,96835.50
2023-03-05T01:25:05.768Z,96825.03
2023-03-05T01:27:37.270Z,96825.06
2023-03-05T01:30:12.064Z,96820.56
2023-03-05T01:32:43.822Z,96824.16
2023-03-05T01:35:20.418Z,96820.75
2023-03-05T01:37:55.952Z,96821.06
2023-03-05T01:40:29.532Z,96815.03
2023-03-05T01:43:22.134Z,96813.00
2023-03-05T01:46:34.827Z,96809.00
2023-03-05T01:49:22.952Z,96803.44
2023-03-05T01:52:18.095Z,96805.63
2023-03-05T01:54:52.756Z,96803.44
2023-03-05T01:58:21.411Z,96800.34
2023-03-05T02:00:56.511Z,96785.28
2023-03-05T02:03:28.360Z,96787.13
2023-03-05T02:06:00.043Z,96794.81
2023-03-05T02:08:31.727Z,96790.78
2023-03-05T02:11:04.091Z,96785.38
2023-03-05T02:13:40.704Z,96780.88
2023-03-05T02:16:12.761Z,96777.16
2023-03-05T02:18:44.403Z,96772.72
2023-03-05T02:21:29.176Z,96769.47
2023-03-05T02:24:00.781Z,96770.06
2023-03-05T02:26:32.733Z,96765.44
2023-03-05T02:29:10.302Z,96763.91
2023-03-05T02:31:42.018Z,96760.19
2023-03-05T02:34:14.378Z,96757.53
2023-03-05T02:36:46.766Z,96757.88
2023-03-05T02:39:20.437Z,96754.28
2023-03-05T02:41:52.044Z,96757.88
2023-03-05T02:44:23.644Z,96750.59
2023-03-05T02:46:55.216Z,96745.66
2023-03-05T02:49:27.591Z,96745.47
2023-03-05T02:51:59.248Z,96740.44
2023-03-05T02:54:30.901Z,96738.78
2023-03-05T02:57:02.526Z,96735.22
2023-03-05T02:59:34.135Z,96737.28
2023-03-05T03:02:05.783Z,96724.81
2023-03-05T03:04:37.407Z,96714.63
2023-03-05T03:07:09.172Z,96712.41
2023-03-05T03:09:43.194Z,96710.53
2023-03-05T03:12:15.820Z,96713.03
2023-03-05T03:14:47.362Z,96705.06
2023-03-05T03:17:22.063Z,96711.53
2023-03-05T03:19:53.587Z,96696.41
2023-03-05T03:22:25.296Z,96702.91
2023-03-05T03:24:56.837Z,96697.63
2023-03-05T03:27:28.423Z,96693.28
2023-03-05T03:30:03.025Z,96693.63
2023-03-05T03:32:34.797Z,96694.34
2023-03-05T03:35:07.555Z,96691.13
2023-03-05T03:37:39.302Z,96689.22
2023-03-05T03:40:14.550Z,96698.97
2023-03-05T03:42:46.232Z,96691.13
2023-03-05T03:45:17.910Z,96683.06
2023-03-05T03:47:51.148Z,96684.59
2023-03-05T03:50:24.939Z,96682.44
2023-03-05T03:52:56.519Z,96683.69
2023-03-05T03:55:30.846Z,96674.41
2023-03-05T03:58:03.364Z,96680.28
2023-03-05T04:00:35.383Z,96671.03
2023-03-05T04:03:07.895Z,96671.03
2023-03-05T04:05:39.454Z,96660.72
2023-03-05T04:08:12.097Z,96669.66
2023-03-05T04:10:43.722Z,96667.69
2023-03-05T04:13:15.288Z,96669.81
2023-03-05T04:15:46.938Z,96665.63
2023-03-05T04:18:20.634Z,96664.88
2023-03-05T04:20:52.219Z,96659.66
2023-03-05T04:23:23.795Z,96666.75
2023-03-05T04:25:55.355Z,96666.16
2023-03-05T04:28:27.228Z,96664.91
2023-03-05T04:30:59.060Z,96663.34
2023-03-05T04:33:31.353Z,96658.72
2023-03-05T04:36:02.972Z,96658.53
2023-03-05T04:38:34.613Z,96656.53
2023-03-05T04:41:06.190Z,96650.38
2023-03-05T04:43:37.779Z,96653.50
2023-03-05T04:46:09.379Z,96649.31
2023-03-05T04:48:41.144Z,96638.38
2023-03-05T04:51:12.762Z,96640.53
2023-03-05T04:53:44.871Z,96638.09
2023-03-05T04:56:16.477Z,96634.75
2023-03-05T04:58:48.389Z,96639.31
2023-03-05T05:01:20.262Z,96635.28
2023-03-05T05:03:52.305Z,96626.63
2023-03-05T05:06:23.964Z,96624.19
2023-03-05T05:08:57.968Z,96618.88
2023-03-05T05:11:29.754Z,96623.50
2023-03-05T05:14:01.558Z,96617.34
2023-03-05T05:16:33.335Z,96617.34
2023-03-05T05:19:04.998Z,96610.91
2023-03-05T05:21:36.607Z,96616.28
2023-03-05T05:24:08.340Z,96616.75
2023-03-05T05:26:39.973Z,96622.53
2023-03-05T05:29:14.721Z,96607.88
2023-03-05T05:31:46.376Z,96615.88
2023-03-05T05:34:18.045Z,96617.22
2023-03-05T05:36:49.592Z,96615.88
2023-03-05T05:39:21.300Z,96613.72
2023-03-05T05:41:53.410Z,96618.69
2023-03-05T05:44:24.965Z,96618.94
2023-03-05T05:46:59.337Z,96622.31
2023-03-05T05:49:30.890Z,96625.09
2023-03-05T05:52:02.429Z,96624.19
2023-03-05T05:54:34.597Z,96618.94
2023-03-05T05:57:06.702Z,96612.78
2023-03-05T05:59:39.304Z,96613.72
2023-03-05T06:02:11.331Z,96620.47
2023-03-05T06:04:42.993Z,96608.13
2023-03-05T06:07:14.574Z,96602.28
2023-03-05T06:09:46.204Z,96604.66
2023-03-05T06:12:17.767Z,96612.34
2023-03-05T06:14:49.582Z,96616.22
2023-03-05T06:17:29.823Z,96606.97
2023-03-05T06:20:04.348Z,96614.84
2023-03-05T06:22:38.109Z,96622.06
2023-03-05T06:25:11.983Z,96618.00
2023-03-05T06:27:43.573Z,96618.63
2023-03-05T06:30:15.228Z,96613.22
2023-03-05T06:32:46.776Z,96612.44
2023-03-05T06:35:18.515Z,96616.16
2023-03-05T06:37:50.166Z,96613.94
2023-03-05T06:40:21.709Z,96615.16
2023-03-05T06:42:53.352Z,96616.00
2023-03-05T06:45:27.005Z,96615.31
2023-03-05T06:47:58.558Z,96614.34
2023-03-05T06:50:30.074Z,96616.66
2023-03-05T06:53:02.105Z,96602.28
2023-03-05T06:55:39.705Z,96606.91
2023-03-05T06:58:11.330Z,96606.03
2023-03-05T07:00:44.587Z,96603.03
2023-03-05T07:03:16.128Z,96611.66
2023-03-05T07:05:47.976Z,96610.69
2023-03-05T07:08:19.652Z,96615.19
2023-03-05T07:10:51.170Z,96614.22
2023-03-05T07:13:22.767Z,96609.25
2023-03-05T07:15:55.486Z,96617.16
2023-03-05T07:18:27.081Z,96613.91
2023-03-05T07:21:06.731Z,96610.25
2023-03-05T07:23:38.499Z,96615.63
2023-03-05T07:26:11.105Z,96613.25
2023-03-05T07:28:43.279Z,96611.56
2023-03-05T07:31:27.188Z,96608.31
2023-03-05T07:34:01.407Z,96611.78
2023-03-05T07:36:34.967Z,96607.56
2023-03-05T07:39:07.061Z,96606.41
2023-03-05T07:41:41.210Z,96610.78
2023-03-05T07:44:12.756Z,96603.31
2023-03-05T07:46:45.800Z,96607.59
2023-03-05T07:49:17.374Z,96598.56
2023-03-05T07:51:49.095Z,96593.38
2023-03-05T07:54:20.658Z,96592.09
2023-03-05T07:56:55.725Z,96593.84
2023-03-05T07:59:27.255Z,96589.16
2023-03-05T08:01:59.029Z,96591.56
2023-03-05T08:04:31.949Z,96591.22
2023-03-05T08:07:03.754Z,96587.31
2023-03-05T08:09:35.422Z,96582.38
2023-03-05T08:12:07.603Z,96578.84
2023-03-05T08:14:40.703Z,96585.50
2023-03-05T08:17:12.247Z,96579.25
2023-03-05T08:19:43.831Z,96571.47
2023-03-05T08:22:17.441Z,96574.25
2023-03-05T08:24:50.390Z,96573.41
2023-03-05T08:27:22.014Z,96568.50
2023-03-05T08:29:53.564Z,96575.75
2023-03-05T08:32:25.120Z,96568.91
2023-03-05T08:35:01.632Z,96563.34
2023-03-05T08:37:33.625Z,96561.91
2023-03-05T08:40:06.281Z,96570.84
2023-03-05T08:42:37.933Z,96562.44
2023-03-05T08:45:10.650Z,96552.16
2023-03-05T08:47:42.361Z,96561.84
2023-03-05T08:50:13.999Z,96552.59
2023-03-05T08:52:45.534Z,96563.22
2023-03-05T08:55:17.241Z,96555.34
2023-03-05T08:57:48.805Z,96564.72
2023-03-05T09:00:20.747Z,96561.91
2023-03-05T09:02:52.383Z,96566.25
2023-03-05T09:05:24.203Z,96561.03
2023-03-05T09:07:55.809Z,96561.00
2023-03-05T09:10:27.409Z,96560.91
2023-03-05T09:12:58.963Z,96565.31
2023-03-05T09:15:31.464Z,96554.19
2023-03-05T09:18:03.168Z,96551.97
2023-03-05T09:20:36.374Z,96540.53
2023-03-05T09:23:07.890Z,96530.31
2023-03-05T09:25:42.499Z,96530.97
2023-03-05T09:28:14.097Z,96537.66
2023-03-05T09:30:45.732Z,96541.53
2023-03-05T09:33:17.592Z,96528.81
2023-03-05T09:35:49.178Z,96526.69
2023-03-05T09:38:21.317Z,96532.06
2023-03-05T09:41:15.637Z,96521.63
2023-03-05T09:43:59.803Z,96518.13
2023-03-05T09:46:52.907Z,96523.44
2023-03-05T09:49:57.940Z,96525.78
2023-03-05T09:52:57.703Z,96523.88
2023-03-05T09:55:41.828Z,96521.22
2023-03-05T09:58:31.505Z,96527.25
2023-03-05T10:01:28.163Z,96514.53
2023-03-05T10:04:11.731Z,96513.53
2023-03-05T10:07:04.212Z,96514.75
2023-03-05T10:09:49.265Z,96511.31
2023-03-05T10:12:32.602Z,96507.28
2023-03-05T10:15:11.402Z,96510.94
2023-03-05T10:18:19.173Z,96506.34
2023-03-05T10:20:56.832Z,96505.38
2023-03-05T10:23:37.404Z,96501.06
2023-03-05T10:26:35.062Z,96507.69
2023-03-05T10:29:55.899Z,96507.28
2023-03-05T10:32:34.082Z,96497.97
2023-03-05T10:35:47.366Z,96493.84
2023-03-05T10:38:35.185Z,96488.34
2023-03-05T10:41:44.106Z,96483.41
2023-03-05T10:44:20.744Z,96479.19
2023-03-05T10:46:55.987Z,96490.94
2023-03-05T10:49:38.812Z,96477.78
2023-03-05T10:52:40.582Z,96479.81
2023-03-05T10:55:19.667Z,96466.44
2023-03-05T10:57:51.213Z,96457.72
2023-03-05T11:00:27.971Z,96457.59
2023-03-05T11:03:08.310Z,96457.22
2023-03-05T11:05:51.345Z,96459.69
2023-03-05T11:08:29.506Z,96458.25
2023-03-05T11:11:27.088Z,96453.16
2023-03-05T11:14:03.752Z,96443.28
2023-03-05T11:16:48.024Z,96442.53
2023-03-05T11:19:29.693Z,96431.63
2023-03-05T11:22:10.854Z,96427.97
2023-03-05T11:24:46.609Z,96422.56
2023-03-05T11:27:34.994Z,96413.56
2023-03-05T11:30:32.819Z,96404.81
2023-03-05T11:33:20.467Z,96401.03
2023-03-05T11:36:09.322Z,96401.38
2023-03-05T11:39:10.107Z,96399.25
2023-03-05T11:42:06.977Z,96393.91
2023-03-05T11:44:50.503Z,96395.59
2023-03-05T11:47:49.883Z,96382.69
2023-03-05T11:50:31.460Z,96382.31
2023-03-05T11:53:22.007Z,96374.84
2023-03-05T11:56:20.613Z,96378.34
2023-03-05T11:59:20.271Z,96370.94
2023-03-05T12:01:55.301Z,96369.06
2023-03-05T12:04:27.558Z,96368.94
2023-03-05T12:07:03.020Z,96369.28
2023-03-05T12:09:43.273Z,96358.56
2023-03-05T12:12:47.583Z,96356.38
2023-03-05T12:15:19.031Z,96346.75
2023-03-05T12:18:13.607Z,96354.22
2023-03-05T12:21:08.499Z,96342.03
2023-03-05T12:24:02.366Z,96337.28
2023-03-05T12:26:52.842Z,96340.34
2023-03-05T12:29:27.521Z,96332.38
2023-03-05T12:32:01.149Z,96327.16
2023-03-05T12:34:42.149Z,96318.72
2023-03-05T12:37:23.339Z,96319.41
2023-03-05T12:40:26.126Z,96318.69
2023-03-05T12:43:02.439Z,96317.38
2023-03-05T12:45:39.515Z,96307.78
2023-03-05T12:48:12.585Z,96303.16
2023-03-05T12:50:45.057Z,96300.63
2023-03-05T12:53:20.422Z,96298.94
2023-03-05T12:56:13.304Z,96293.50
2023-03-05T12:58:52.288Z,96295.84
2023-03-05T13:01:46.174Z,96282.66
2023-03-05T13:04:25.034Z,96286.91
2023-03-05T13:07:15.064Z,96286.25
2023-03-05T13:09:55.781Z,96272.53
2023-03-05T13:12:30.564Z,96261.34
2023-03-05T13:15:06.678Z,96261.38
2023-03-05T13:17:51.033Z,96255.38
2023-03-05T13:20:31.483Z,96259.72
2023-03-05T13:23:18.449Z,96257.00
2023-03-05T13:26:19.964Z,96251.84
2023-03-05T13:29:20.464Z,96253.53
2023-03-05T13:32:17.698Z,96249.13
2023-03-05T13:34:50.620Z,96248.50
2023-03-05T13:37:26.063Z,96242.06
2023-03-05T13:40:07.525Z,96242.75
2023-03-05T13:42:39.059Z,96236.81
2023-03-05T13:45:22.830Z,96234.22
2023-03-05T13:48:06.984Z,96241.69
2023-03-05T13:50:40.538Z,96240.91
2023-03-05T13:53:31.761Z,96245.47
2023-03-05T13:56:14.222Z,96224.66
2023-03-05T13:58:53.027Z,96217.53
2023-03-05T14:01:40.538Z,96224.38
2023-03-05T14:04:15.546Z,96226.28
2023-03-05T14:07:06.200Z,96225.88
2023-03-05T14:09:40.616Z,96214.00
2023-03-05T14:12:38.887Z,96216.50
2023-03-05T14:15:30.671Z,96215.50
2023-03-05T14:18:15.093Z,96212.56
2023-03-05T14:20:59.684Z,96205.44
2023-03-05T14:23:43.493Z,96204.53
2023-03-05T14:26:20.803Z,96198.69
2023-03-05T14:29:11.724Z,96196.78
2023-03-05T14:32:08.605Z,96190.06
2023-03-05T14:34:42.630Z,96188.13
2023-03-05T14:37:46.751Z,96181.91
2023-03-05T14:40:21.188Z,96181.94
2023-03-05T14:43:00.312Z,96179.13
2023-03-05T14:45:36.343Z,96177.19
2023-03-05T14:48:08.350Z,96167.84
2023-03-05T14:50:47.317Z,96174.63
2023-03-05T14:53:28.177Z,96161.09
2023-03-05T14:55:59.788Z,96163.16
2023-03-05T14:58:35.436Z,96165.75
2023-03-05T15:01:07.524Z,96156.66
2023-03-05T15:03:41.034Z,96154.78
2023-03-05T15:06:26.327Z,96151.47
2023-03-05T15:08:58.344Z,96141.91
2023-03-05T15:11:30.273Z,96146.50
2023-03-05T15:14:01.850Z,96143.19
2023-03-05T15:16:33.495Z,96139.25
2023-03-05T15:19:05.049Z,96132.66
2023-03-05T15:21:37.257Z,96136.41
2023-03-05T15:24:11.276Z,96131.72
2023-03-05T15:26:43.204Z,96125.84
2023-03-05T15:29:14.732Z,96126.13
2023-03-05T15:31:48.829Z,96124.81
2023-03-05T15:34:20.570Z,96124.78
2023-03-05T15:36:52.098Z,96115.78
2023-03-05T15:39:25.373Z,96116.13
2023-03-05T15:41:58.454Z,96120.25
2023-03-05T15:44:30.057Z,96107.72
2023-03-05T15:47:01.605Z,96103.78
2023-03-05T15:49:33.941Z,96101.38
2023-03-05T15:52:08.652Z,96099.50
2023-03-05T15:54:40.234Z,96097.22
2023-03-05T15:57:14.784Z,96097.47
2023-03-05T15:59:46.340Z,96094.50
2023-03-05T16:02:18.739Z,96086.25
2023-03-05T16:04:50.335Z,96088.31
2023-03-05T16:07:23.694Z,96086.31
2023-03-05T16:09:57.307Z,96087.09
2023-03-05T16:12:40.584Z,96082.41
2023-03-05T16:15:16.415Z,96083.44
2023-03-05T16:17:54.399Z,96080.19
2023-03-05T16:20:29.481Z,96079.00
2023-03-05T16:23:00.998Z,96068.00
2023-03-05T16:25:33.200Z,96068.91
2023-03-05T16:28:07.621Z,96064.06
2023-03-05T16:30:40.180Z,96060.00
2023-03-05T16:33:11.859Z,96061.28
2023-03-05T16:35:43.616Z,96047.59
2023-03-05T16:38:15.790Z,96050.16
2023-03-05T16:43:38.936Z,96051.19
2023-03-05T16:46:12.840Z,96051.16
2023-03-05T16:48:44.400Z,96049.69
2023-03-05T16:51:16.032Z,96040.03
2023-03-05T16:53:47.665Z,96043.59
2023-03-05T16:56:19.325Z,96036.44
2023-03-05T16:58:53.362Z,96037.38
2023-03-05T17:01:25.548Z,96040.22
2023-03-05T17:03:59.178Z,96039.72
2023-03-05T17:06:32.742Z,96036.38
2023-03-05T17:09:04.690Z,96038.59
2023-03-05T17:11:36.245Z,96041.94
2023-03-05T17:14:07.863Z,96032.56
2023-03-05T17:16:39.477Z,96037.38
2023-03-05T17:19:11.204Z,96040.38
2023-03-05T17:21:42.915Z,96041.19
2023-03-05T17:24:14.642Z,96042.22
2023-03-05T17:26:46.431Z,96048.34
2023-03-05T17:29:19.288Z,96038.47
2023-03-05T17:31:54.487Z,96047.09
2023-03-05T17:34:36.060Z,96045.84
2023-03-05T17:37:08.175Z,96040.00
2023-03-05T17:39:39.798Z,96043.56
2023-03-05T17:42:11.461Z,96051.16
2023-03-05T17:44:43.010Z,96046.59
2023-03-05T17:47:15.124Z,96037.44
2023-03-05T17:49:46.821Z,96038.19
2023-03-05T17:52:21.018Z,96037.69
2023-03-05T17:54:53.311Z,96042.97
2023-03-05T17:57:25.492Z,96039.16
2023-03-05T17:59:57.923Z,96041.19
2023-03-05T18:02:29.505Z,96035.84
2023-03-05T18:05:02.672Z,96034.34
2023-03-05T18:07:39.161Z,96033.31
2023-03-05T18:10:12.782Z,96033.84
2023-03-05T18:12:45.047Z,96033.53
2023-03-05T18:15:20.547Z,96024.63
2023-03-05T18:17:52.788Z,96034.53
2023-03-05T18:20:33.555Z,96028.44
2023-03-05T18:23:05.737Z,96021.84
2023-03-05T18:25:37.466Z,96023.09
2023-03-05T18:28:12.788Z,96022.09
2023-03-05T18:30:46.006Z,96018.03
2023-03-05T18:33:21.461Z,96019.81
2023-03-05T18:35:55.875Z,96024.56
2023-03-05T18:38:29.740Z,96022.00
2023-03-05T18:41:02.983Z,96022.72
2023-03-05T18:43:36.618Z,96015.56
2023-03-05T18:46:08.554Z,96012.22
2023-03-05T18:48:40.178Z,96007.91
2023-03-05T18:51:17.459Z,96005.91
2023-03-05T18:53:50.259Z,96004.06
2023-03-05T18:56:22.176Z,96004.19
2023-03-05T18:58:53.780Z,96006.13
2023-03-05T19:01:25.841Z,96005.13
2023-03-05T19:03:57.781Z,96000.25
2023-03-05T19:06:29.507Z,95996.09
2023-03-05T19:09:08.542Z,96001.25
2023-03-05T19:11:40.074Z,95998.91
2023-03-05T19:14:11.616Z,96001.47
2023-03-05T19:16:44.178Z,96000.78
2023-03-05T19:19:22.501Z,96003.06
2023-03-05T19:21:59.709Z,95992.09
2023-03-05T19:24:31.405Z,95990.41
2023-03-05T19:27:10.192Z,95987.28
2023-03-05T19:29:43.235Z,95984.63
2023-03-05T19:32:18.182Z,95986.13
2023-03-05T19:34:50.392Z,95987.13
2023-03-05T19:37:22.537Z,95981.72
2023-03-05T19:39:54.320Z,95973.50
2023-03-05T19:42:26.074Z,95970.84
2023-03-05T19:45:00.136Z,95973.59
2023-03-05T19:47:31.944Z,95970.97
2023-03-05T19:50:05.365Z,95968.38
2023-03-05T19:52:36.926Z,95965.09
2023-03-05T19:55:10.048Z,95965.41
2023-03-05T19:57:41.625Z,95971.03
2023-03-05T20:00:15.077Z,95971.59
2023-03-05T20:02:48.611Z,95968.56
2023-03-05T20:05:23.031Z,95979.63
2023-03-05T20:07:56.660Z,95980.03
2023-03-05T20:10:28.307Z,95979.22
2023-03-05T20:13:00.232Z,95976.34
2023-03-05T20:15:32.767Z,95972.13
2023-03-05T20:18:04.450Z,95967.66
2023-03-05T20:20:35.978Z,95976.41
2023-03-05T20:23:07.518Z,95971.59
2023-03-05T20:25:39.224Z,95971.53
2023-03-05T20:28:10.849Z,95964.16
2023-03-05T20:30:43.912Z,95969.00
2023-03-05T20:33:15.633Z,95969.56
2023-03-05T20:35:47.457Z,95963.78
2023-03-05T20:38:30.306Z,95960.47
2023-03-05T20:41:06.282Z,95973.59
2023-03-05T20:43:44.636Z,95961.16
2023-03-05T20:46:28.310Z,95962.47
2023-03-05T20:49:02.909Z,95960.69
2023-03-05T20:51:39.054Z,95948.03
2023-03-05T20:54:14.474Z,95949.69
2023-03-05T20:56:46.270Z,95948.50
2023-03-05T20:59:18.051Z,95946.09
2023-03-05T21:01:49.674Z,95951.69
2023-03-05T21:04:23.170Z,95947.38
2023-03-05T21:06:56.265Z,95938.91
2023-03-05T21:13:59.298Z,95926.53
2023-03-05T21:16:31.226Z,95942.53
2023-03-05T21:19:03.028Z,95942.44
2023-03-05T21:21:34.620Z,95941.53
2023-03-05T21:24:06.698Z,95933.44
2023-03-05T21:26:38.468Z,95928.66
2023-03-05T21:29:12.739Z,95925.38
2023-03-05T21:31:52.332Z,95924.66
2023-03-05T21:34:23.937Z,95923.94
2023-03-05T21:36:55.458Z,95910.38
2023-03-05T21:39:27.188Z,95920.78
2023-03-05T21:41:59.566Z,95907.19
2023-03-05T21:44:31.110Z,95916.75
2023-03-05T21:47:02.702Z,95912.53
2023-03-05T21:49:34.321Z,95905.19
2023-03-05T21:52:09.499Z,95908.59
2023-03-05T21:54:44.079Z,95916.09
2023-03-05T21:57:15.685Z,95906.31
2023-03-05T21:59:49.243Z,95908.38
2023-03-05T22:02:22.575Z,95903.94
2023-03-05T22:04:54.176Z,95901.34
2023-03-05T22:07:26.728Z,95904.50
2023-03-05T22:09:58.785Z,95896.53
2023-03-05T22:13:06.833Z,95892.59
2023-03-05T22:15:54.938Z,95895.25
2023-03-05T22:18:33.534Z,95896.59
2023-03-05T22:21:18.282Z,95893.78
2023-03-05T22:23:50.056Z,95897.31
2023-03-05T22:26:21.601Z,95889.72
2023-03-05T22:28:53.219Z,95893.97
2023-03-05T22:31:27.429Z,95897.22
2023-03-05T22:33:59.034Z,95898.50
2023-03-05T22:36:30.664Z,95890.22
2023-03-05T22:39:03.384Z,95892.50
2023-03-05T22:41:38.456Z,95887.19
2023-03-05T22:44:10.149Z,95884.66
2023-03-05T22:46:41.783Z,95882.34
2023-03-05T22:49:13.346Z,95884.56
2023-03-05T22:51:48.814Z,95883.50
2023-03-05T22:54:21.315Z,95872.38
2023-03-05T22:56:52.921Z,95875.97
2023-03-05T22:59:24.570Z,95870.59
2023-03-05T23:01:56.327Z,95866.34
2023-03-05T23:04:49.505Z,95859.72
2023-03-05T23:07:27.660Z,95857.44
2023-03-05T23:10:08.846Z,95853.91
2023-03-05T23:12:46.196Z,95857.19
2023-03-05T23:15:31.264Z,95860.81
2023-03-05T23:18:04.748Z,95856.53
2023-03-05T23:20:37.341Z,95850.38
2023-03-05T23:23:09.386Z,95850.63
2023-03-05T23:25:41.219Z,95844.50
2023-03-05T23:28:15.780Z,95839.75
2023-03-05T23:30:47.422Z,95841.81
2023-03-05T23:33:23.185Z,95837.03
2023-03-05T23:35:58.648Z,95836.78
2023-03-05T23:38:30.643Z,95837.50
2023-03-05T23:41:03.662Z,95828.31
2023-03-05T23:43:35.520Z,95832.34
2023-03-05T23:46:11.915Z,95839.94
2023-03-05T23:48:43.606Z,95831.59
2023-03-05T23:51:15.252Z,95830.41
2023-03-05T23:53:48.395Z,95833.56
2023-03-05T23:56:23.049Z,95828.91
2023-03-05T23:59:00.383Z,95829.97
